Time;durP1;ratioP1;P1;durP2;ratioP2;P2;SDS_P1;SDS_P2;PMS_P1;PMS_P2;Temp;Humidity;BMP_temperature;BMP_pressure;BME280_temperature;BME280_humidity;BME280_pressure;Samples;Min_cycle;Max_cycle;Signal;HPM_P1;HPM_P2
2024/01/04 00:01:33;;;;;;;49.22;25.88;;;;;;;;;;10541571;28;20431;-86
2024/01/04 00:06:43;;;;;;;50.70;27.00;;;;;;;;;;10575165;28;20410;-85
2024/01/04 00:11:47;;;;;;;54.88;28.52;;;;;;;;;;10554414;28;20431;-86
2024/01/04 00:16:50;;;;;;;54.28;27.65;;;;;;;;;;10543952;28;20452;-86
2024/01/04 00:21:52;;;;;;;51.72;27.90;;;;;;;;;;10542965;28;20496;-85
2024/01/04 00:26:56;;;;;;;51.88;27.98;;;;;;;;;;10546682;28;20410;-86
2024/01/04 00:31:58;;;;;;;53.88;27.83;;;;;;;;;;10544573;28;20473;-86
2024/01/04 00:37:00;;;;;;;54.72;28.60;;;;;;;;;;10543921;28;20447;-86
2024/01/04 00:42:05;;;;;;;51.20;28.35;;;;;;;;;;10540542;28;20401;-86
2024/01/04 00:47:07;;;;;;;54.03;27.57;;;;;;;;;;10543777;28;20431;-86
2024/01/04 00:52:09;;;;;;;51.70;28.17;;;;;;;;;;10545552;28;20828;-84
2024/01/04 00:57:13;;;;;;;57.38;28.95;;;;;;;;;;10548400;28;20840;-84
2024/01/04 01:02:16;;;;;;;53.93;29.47;;;;;;;;;;10553096;28;20764;-85
2024/01/04 01:07:18;;;;;;;60.47;30.60;;;;;;;;;;10550460;28;20516;-84
2024/01/04 01:12:22;;;;;;;59.20;31.63;;;;;;;;;;10550063;28;20846;-84
2024/01/04 01:17:24;;;;;;;59.80;30.50;;;;;;;;;;10554801;28;20432;-84
2024/01/04 01:22:27;;;;;;;56.50;29.85;;;;;;;;;;10550900;28;20422;-85
2024/01/04 01:27:30;;;;;;;55.77;29.17;;;;;;;;;;10551337;28;20848;-85
2024/01/04 01:32:33;;;;;;;54.28;29.63;;;;;;;;;;10549235;28;20440;-85
2024/01/04 01:37:36;;;;;;;62.50;30.87;;;;;;;;;;10549819;28;20451;-84
2024/01/04 01:42:39;;;;;;;58.45;27.85;;;;;;;;;;10549516;28;20774;-85
2024/01/04 01:47:42;;;;;;;50.20;25.77;;;;;;;;;;10550547;28;20465;-84
2024/01/04 04:23:29;;;;;;;33.22;17.40;;;;;;;;;;10602083;27;20453;-86
2024/01/04 04:28:31;;;;;;;31.88;17.67;;;;;;;;;;10589763;27;20898;-84
2024/01/04 04:33:33;;;;;;;32.72;18.27;;;;;;;;;;10607508;27;20410;-86
2024/01/04 04:38:37;;;;;;;32.03;18.38;;;;;;;;;;10589002;27;20466;-86
2024/01/04 04:43:39;;;;;;;31.10;17.00;;;;;;;;;;10584598;28;20868;-86
2024/01/04 04:48:42;;;;;;;31.08;17.70;;;;;;;;;;10592346;28;20466;-86
2024/01/04 04:53:45;;;;;;;32.93;17.77;;;;;;;;;;10589257;28;20414;-86
2024/01/04 04:58:48;;;;;;;31.07;16.33;;;;;;;;;;10589627;27;20515;-86
2024/01/04 05:03:52;;;;;;;31.92;17.58;;;;;;;;;;10593765;27;20426;-86
2024/01/04 05:08:55;;;;;;;32.70;17.87;;;;;;;;;;10590788;27;20452;-87
2024/01/04 05:13:58;;;;;;;29.70;16.27;;;;;;;;;;10593117;27;20961;-86
2024/01/04 05:19:00;;;;;;;33.95;17.17;;;;;;;;;;10594786;27;20456;-86
2024/01/04 05:24:04;;;;;;;33.40;17.75;;;;;;;;;;10591076;27;20410;-86
2024/01/04 05:29:07;;;;;;;31.48;17.67;;;;;;;;;;10591921;27;20403;-86
2024/01/04 05:34:09;;;;;;;31.90;17.67;;;;;;;;;;10593685;27;20945;-86
2024/01/04 05:39:13;;;;;;;33.33;17.67;;;;;;;;;;10596308;27;20501;-86
2024/01/04 05:44:15;;;;;;;36.25;18.67;;;;;;;;;;10620496;27;20833;-86
2024/01/04 05:49:18;;;;;;;35.73;18.70;;;;;;;;;;10596561;27;20440;-86
2024/01/04 05:54:22;;;;;;;33.88;18.90;;;;;;;;;;10587687;27;20435;-87
2024/01/04 05:59:24;;;;;;;36.22;18.48;;;;;;;;;;10592428;27;20423;-86
2024/01/04 06:04:27;;;;;;;36.23;18.40;;;;;;;;;;10595274;27;20954;-87
2024/01/04 06:09:30;;;;;;;38.40;18.83;;;;;;;;;;10591943;27;20772;-86
2024/01/04 06:14:33;;;;;;;34.57;19.03;;;;;;;;;;10588796;27;20822;-86
2024/01/04 06:19:35;;;;;;;34.00;18.70;;;;;;;;;;10588430;27;20464;-87
2024/01/04 06:24:39;;;;;;;33.88;17.52;;;;;;;;;;10588302;27;20409;-86
2024/01/04 06:29:44;;;;;;;33.78;17.60;;;;;;;;;;10590064;27;20397;-86
2024/01/04 06:34:46;;;;;;;33.85;17.60;;;;;;;;;;10586807;27;20391;-86
2024/01/04 06:39:50;;;;;;;31.40;17.45;;;;;;;;;;10591804;27;20860;-86
2024/01/04 06:44:53;;;;;;;34.08;17.90;;;;;;;;;;10586190;27;20410;-86
2024/01/04 06:49:55;;;;;;;122.97;50.93;;;;;;;;;;10590382;27;20461;-86
2024/01/04 06:54:59;;;;;;;33.33;18.50;;;;;;;;;;10590697;27;20460;-86
2024/01/04 07:00:01;;;;;;;32.93;17.37;;;;;;;;;;10589157;27;20414;-86
2024/01/04 07:05:05;;;;;;;33.33;18.35;;;;;;;;;;10590065;27;20822;-87
2024/01/04 07:10:10;;;;;;;36.33;18.70;;;;;;;;;;10593147;27;20413;-86
2024/01/04 07:15:13;;;;;;;32.47;18.45;;;;;;;;;;10588222;27;20392;-86
2024/01/04 07:20:15;;;;;;;41.35;22.60;;;;;;;;;;10590381;27;20935;-87
2024/01/04 07:25:20;;;;;;;57.75;29.45;;;;;;;;;;10593685;27;20414;-86
2024/01/04 07:30:22;;;;;;;76.77;37.13;;;;;;;;;;10583361;27;20445;-86
2024/01/04 07:35:24;;;;;;;43.22;24.45;;;;;;;;;;10609942;27;20949;-85
2024/01/04 07:40:28;;;;;;;36.53;19.58;;;;;;;;;;10588253;27;20513;-84
2024/01/04 07:45:31;;;;;;;42.70;20.38;;;;;;;;;;10587497;27;20492;-86
2024/01/04 07:50:34;;;;;;;37.00;20.25;;;;;;;;;;10587365;28;20399;-86
2024/01/04 07:55:37;;;;;;;50.07;26.97;;;;;;;;;;10595871;28;20438;-86
2024/01/04 08:00:40;;;;;;;40.28;21.33;;;;;;;;;;10592817;28;20890;-86
2024/01/04 08:05:42;;;;;;;39.65;21.02;;;;;;;;;;10589923;28;20410;-87
2024/01/04 08:10:46;;;;;;;39.25;21.23;;;;;;;;;;10589938;28;20427;-83
2024/01/04 08:15:50;;;;;;;39.57;21.63;;;;;;;;;;10583212;28;20439;-84
2024/01/04 08:20:52;;;;;;;41.15;22.40;;;;;;;;;;10581154;28;20535;-86
2024/01/04 08:25:56;;;;;;;45.30;24.67;;;;;;;;;;10583932;28;20399;-84
2024/01/04 08:30:58;;;;;;;41.63;21.97;;;;;;;;;;10585163;27;20471;-82
2024/01/04 08:36:01;;;;;;;37.42;21.67;;;;;;;;;;10596572;27;20880;-85
2024/01/04 08:41:05;;;;;;;42.23;22.33;;;;;;;;;;10592999;27;20507;-85
2024/01/04 08:46:08;;;;;;;40.27;21.80;;;;;;;;;;10596969;27;20462;-84
2024/01/04 08:51:10;;;;;;;42.70;22.98;;;;;;;;;;10579575;27;20492;-84
2024/01/04 08:56:14;;;;;;;43.00;21.73;;;;;;;;;;10585592;27;20421;-84
2024/01/04 09:01:17;;;;;;;41.78;21.05;;;;;;;;;;10572217;27;20495;-84
2024/01/04 09:06:19;;;;;;;39.83;22.60;;;;;;;;;;10589138;27;20430;-82
2024/01/04 09:11:23;;;;;;;40.65;22.73;;;;;;;;;;10592472;27;20497;-84
2024/01/04 09:16:25;;;;;;;42.83;22.58;;;;;;;;;;10586656;27;20503;-84
2024/01/04 09:21:28;;;;;;;39.40;21.85;;;;;;;;;;10588651;27;20453;-83
2024/01/04 09:26:32;;;;;;;43.20;24.02;;;;;;;;;;10608438;27;20425;-85
2024/01/04 09:31:34;;;;;;;42.58;22.98;;;;;;;;;;10594079;27;20489;-84
2024/01/04 09:36:37;;;;;;;40.23;23.33;;;;;;;;;;10593620;27;20750;-85
2024/01/04 09:41:44;;;;;;;42.70;23.98;;;;;;;;;;10587267;22;20430;-88
2024/01/04 09:46:49;;;;;;;41.67;23.17;;;;;;;;;;10568921;28;21274;-88
2024/01/04 09:51:52;;;;;;;42.90;23.07;;;;;;;;;;10557925;28;20403;-87
2024/01/04 09:56:56;;;;;;;42.78;23.23;;;;;;;;;;10564193;28;20459;-87
2024/01/04 10:02:03;;;;;;;44.88;24.42;;;;;;;;;;10564726;28;20416;-89
2024/01/04 10:07:09;;;;;;;41.50;24.80;;;;;;;;;;10570902;28;20420;-94
2024/01/04 10:12:16;;;;;;;49.93;25.47;;;;;;;;;;10564941;28;20460;-92
2024/01/04 10:17:19;;;;;;;48.47;24.67;;;;;;;;;;10558120;28;20418;-93
2024/01/04 10:22:22;;;;;;;46.43;25.17;;;;;;;;;;10557849;28;20766;-90
2024/01/04 10:27:26;;;;;;;51.50;26.17;;;;;;;;;;10561017;28;20959;-93
2024/01/04 10:32:29;;;;;;;51.50;25.90;;;;;;;;;;10558498;28;20452;-91
2024/01/04 10:37:32;;;;;;;57.80;27.13;;;;;;;;;;10550639;28;20424;-93
2024/01/04 10:42:36;;;;;;;51.88;27.70;;;;;;;;;;10546638;28;20422;-89
2024/01/04 10:47:41;;;;;;;52.55;27.70;;;;;;;;;;10563518;28;20400;-91
2024/01/04 10:52:48;;;;;;;52.78;27.30;;;;;;;;;;10562129;28;20398;-89
2024/01/04 10:57:52;;;;;;;49.95;25.40;;;;;;;;;;10560416;28;20487;-92
2024/01/04 11:02:56;;;;;;;82.93;42.47;;;;;;;;;;10551549;28;20398;-91
2024/01/04 11:07:59;;;;;;;45.53;25.23;;;;;;;;;;10565775;28;20415;-91
2024/01/04 11:13:03;;;;;;;41.75;22.80;;;;;;;;;;10566290;28;20408;-91
2024/01/04 11:18:19;;;;;;;49.60;24.02;;;;;;;;;;10561286;28;21070;-91
2024/01/04 11:23:41;;;;;;;50.20;25.10;;;;;;;;;;10560308;28;20857;-91
2024/01/04 11:28:48;;;;;;;45.83;23.35;;;;;;;;;;10553370;28;22361;-91
2024/01/04 11:33:50;;;;;;;48.33;24.30;;;;;;;;;;10561201;28;20406;-91
2024/01/04 11:38:57;;;;;;;44.27;22.97;;;;;;;;;;10561989;28;20414;-93
2024/01/04 11:44:00;;;;;;;44.85;22.98;;;;;;;;;;10562734;28;20407;-94
2024/01/04 11:49:05;;;;;;;41.30;21.40;;;;;;;;;;10549999;28;20471;-94
2024/01/04 11:54:09;;;;;;;38.03;20.10;;;;;;;;;;10549836;28;20472;-94
2024/01/04 11:59:15;;;;;;;39.03;20.65;;;;;;;;;;10550147;28;20495;-94
2024/01/04 12:04:18;;;;;;;40.47;20.63;;;;;;;;;;10551266;28;20450;-94
2024/01/04 12:09:20;;;;;;;38.63;21.45;;;;;;;;;;10564266;28;20854;-94
2024/01/04 12:14:24;;;;;;;42.60;20.80;;;;;;;;;;10574732;28;20468;-92
2024/01/04 12:19:27;;;;;;;38.30;20.42;;;;;;;;;;10573980;28;20420;-93
2024/01/04 12:24:29;;;;;;;40.90;20.37;;;;;;;;;;10574882;28;20395;-93
2024/01/04 12:29:33;;;;;;;41.60;21.10;;;;;;;;;;10572853;28;20395;-93
2024/01/04 12:34:35;;;;;;;43.43;22.07;;;;;;;;;;10566113;28;20404;-93
2024/01/04 12:39:38;;;;;;;36.07;19.93;;;;;;;;;;10573443;28;20892;-94
2024/01/04 12:44:43;;;;;;;36.40;20.38;;;;;;;;;;10577082;28;20960;-94
2024/01/04 12:49:55;;;;;;;38.85;21.10;;;;;;;;;;10566372;28;20955;-94
2024/01/04 12:54:57;;;;;;;39.30;20.63;;;;;;;;;;10571536;28;20416;-93
2024/01/04 13:00:01;;;;;;;38.43;19.93;;;;;;;;;;10559118;28;20459;-93
2024/01/04 13:05:04;;;;;;;36.88;21.27;;;;;;;;;;10568321;28;20452;-94
2024/01/04 13:10:08;;;;;;;36.25;20.33;;;;;;;;;;10569995;28;20485;-93
2024/01/04 13:15:12;;;;;;;37.55;20.42;;;;;;;;;;10551843;28;20406;-93
2024/01/04 13:20:15;;;;;;;40.00;21.87;;;;;;;;;;10565809;28;20415;-94
2024/01/04 13:25:17;;;;;;;35.77;19.33;;;;;;;;;;10573944;28;20428;-94
2024/01/04 13:30:25;;;;;;;33.28;18.70;;;;;;;;;;10569185;28;20399;-94
2024/01/04 13:35:28;;;;;;;39.10;20.23;;;;;;;;;;10565370;28;20662;-79
2024/01/04 13:40:30;;;;;;;34.85;19.85;;;;;;;;;;10545291;28;20930;-90
2024/01/04 13:45:34;;;;;;;32.92;19.25;;;;;;;;;;10573780;28;20546;-90
2024/01/04 13:50:36;;;;;;;35.13;19.17;;;;;;;;;;10549980;28;20399;-89
2024/01/04 13:55:38;;;;;;;33.35;19.48;;;;;;;;;;10561429;28;20403;-89
2024/01/04 14:00:42;;;;;;;37.88;20.05;;;;;;;;;;10560639;28;20452;-90
2024/01/04 14:05:46;;;;;;;36.60;20.30;;;;;;;;;;10565259;28;20462;-90
2024/01/04 14:10:48;;;;;;;36.33;21.03;;;;;;;;;;10551922;28;20404;-89
2024/01/04 14:15:52;;;;;;;37.70;20.87;;;;;;;;;;10563566;28;20403;-89
2024/01/04 14:20:54;;;;;;;36.95;20.98;;;;;;;;;;10563824;28;20423;-91
2024/01/04 14:25:57;;;;;;;32.70;20.45;;;;;;;;;;10567042;28;20424;-90
2024/01/04 14:31:02;;;;;;;34.23;20.17;;;;;;;;;;10561329;28;20438;-90
2024/01/04 14:36:07;;;;;;;34.53;21.17;;;;;;;;;;10569898;28;20402;-79
2024/01/04 14:41:09;;;;;;;32.72;20.23;;;;;;;;;;10565458;28;20416;-90
2024/01/04 14:46:22;;;;;;;32.03;19.47;;;;;;;;;;10567761;28;20400;-90
2024/01/04 14:51:26;;;;;;;35.15;20.35;;;;;;;;;;10563357;28;21923;-89
2024/01/04 14:56:28;;;;;;;39.88;21.92;;;;;;;;;;10566513;28;20400;-89
2024/01/04 15:01:32;;;;;;;40.78;21.88;;;;;;;;;;10553468;28;20935;-90
2024/01/04 15:06:34;;;;;;;48.47;27.23;;;;;;;;;;10562417;28;20402;-89
2024/01/04 15:11:37;;;;;;;51.33;27.63;;;;;;;;;;10563385;28;20463;-90
2024/01/04 15:16:43;;;;;;;63.70;31.20;;;;;;;;;;10580620;28;20403;-89
2024/01/04 15:21:46;;;;;;;58.03;31.50;;;;;;;;;;10569070;28;20448;-89
2024/01/04 15:26:49;;;;;;;53.77;28.03;;;;;;;;;;10567787;28;20880;-90
2024/01/04 15:31:52;;;;;;;49.77;25.03;;;;;;;;;;10566386;28;20433;-90
2024/01/04 15:36:58;;;;;;;50.10;26.55;;;;;;;;;;10581516;28;20414;-90
2024/01/04 15:42:00;;;;;;;49.88;25.00;;;;;;;;;;10562168;28;20438;-90
2024/01/04 15:47:04;;;;;;;50.85;26.17;;;;;;;;;;10567479;28;20410;-90
2024/01/04 15:52:07;;;;;;;51.92;27.23;;;;;;;;;;10559652;28;20399;-89
2024/01/04 15:57:10;;;;;;;43.10;23.40;;;;;;;;;;10562860;28;20410;-90
2024/01/04 16:02:14;;;;;;;43.33;23.87;;;;;;;;;;10562923;28;20507;-90
2024/01/04 16:07:19;;;;;;;50.17;24.90;;;;;;;;;;10558789;28;20444;-90
2024/01/04 16:12:25;;;;;;;48.80;25.73;;;;;;;;;;10560141;28;20415;-90
2024/01/04 16:17:29;;;;;;;49.13;25.17;;;;;;;;;;10558669;28;20464;-90
2024/01/04 16:22:31;;;;;;;46.40;24.77;;;;;;;;;;10562562;28;20407;-90
2024/01/04 16:27:33;;;;;;;48.10;26.73;;;;;;;;;;10558965;28;20411;-77
2024/01/04 16:32:37;;;;;;;50.93;26.40;;;;;;;;;;10567464;28;20398;-89
2024/01/04 16:37:40;;;;;;;48.72;26.15;;;;;;;;;;10551992;28;20422;-90
2024/01/04 16:42:42;;;;;;;49.72;26.80;;;;;;;;;;10569795;28;20419;-90
2024/01/04 16:47:46;;;;;;;48.43;26.63;;;;;;;;;;10558809;28;20499;-90
2024/01/04 16:52:48;;;;;;;49.35;27.15;;;;;;;;;;10560426;28;21000;-89
2024/01/04 16:57:51;;;;;;;47.17;26.30;;;;;;;;;;10563679;28;20876;-90
2024/01/04 17:02:55;;;;;;;48.93;26.50;;;;;;;;;;10565897;28;20480;-90
2024/01/04 17:07:57;;;;;;;53.47;28.17;;;;;;;;;;10561219;28;20530;-89
2024/01/04 17:13:00;;;;;;;54.97;28.40;;;;;;;;;;10564354;28;20522;-89
2024/01/04 17:18:04;;;;;;;57.17;29.88;;;;;;;;;;10569654;28;20456;-89
2024/01/04 17:23:06;;;;;;;52.90;29.20;;;;;;;;;;10572849;28;20414;-89
2024/01/04 17:28:09;;;;;;;58.77;30.67;;;;;;;;;;10566942;28;20412;-89
2024/01/04 17:33:13;;;;;;;58.28;31.55;;;;;;;;;;10566892;28;20446;-90
2024/01/04 17:38:15;;;;;;;62.13;35.17;;;;;;;;;;10540758;28;20537;-90
2024/01/04 17:43:19;;;;;;;60.15;33.55;;;;;;;;;;10556123;28;20920;-89
2024/01/04 17:48:23;;;;;;;59.70;34.85;;;;;;;;;;10552396;28;20402;-89
2024/01/04 17:53:25;;;;;;;63.38;34.35;;;;;;;;;;10554987;28;20983;-78
2024/01/04 17:58:28;;;;;;;68.85;36.65;;;;;;;;;;10549219;28;20506;-90
2024/01/04 18:03:32;;;;;;;65.17;32.40;;;;;;;;;;10545332;28;20444;-91
2024/01/04 18:08:34;;;;;;;62.53;33.00;;;;;;;;;;10544580;28;20490;-90
2024/01/04 18:13:36;;;;;;;59.45;31.35;;;;;;;;;;10541153;28;20435;-90
2024/01/04 18:18:40;;;;;;;61.42;34.08;;;;;;;;;;10559073;28;20964;-94
2024/01/04 18:23:44;;;;;;;62.40;34.37;;;;;;;;;;10559811;28;20420;-93
2024/01/04 18:28:47;;;;;;;67.65;35.65;;;;;;;;;;10560278;28;20440;-94
2024/01/04 18:33:51;;;;;;;66.13;34.97;;;;;;;;;;10570394;28;20468;-94
2024/01/04 18:38:53;;;;;;;62.83;33.70;;;;;;;;;;10547390;28;20424;-93
2024/01/04 18:43:56;;;;;;;95.53;45.03;;;;;;;;;;10561872;28;20415;-92
2024/01/04 18:49:02;;;;;;;103.75;50.55;;;;;;;;;;10566202;28;20448;-91
2024/01/04 18:54:04;;;;;;;115.67;54.53;;;;;;;;;;10563207;28;20418;-91
2024/01/04 18:59:07;;;;;;;110.77;52.90;;;;;;;;;;10567572;28;20464;-92
2024/01/04 19:04:11;;;;;;;86.30;44.97;;;;;;;;;;10568531;28;20408;-91
2024/01/04 19:09:14;;;;;;;68.90;37.80;;;;;;;;;;10555308;28;20960;-90
2024/01/04 19:14:17;;;;;;;72.32;38.08;;;;;;;;;;10558174;28;20491;-91
2024/01/04 19:19:22;;;;;;;67.63;37.40;;;;;;;;;;10552505;28;20439;-92
2024/01/04 19:24:24;;;;;;;68.45;37.45;;;;;;;;;;10566230;28;20418;-91
2024/01/04 19:29:27;;;;;;;65.68;35.92;;;;;;;;;;10556329;28;20399;-92
2024/01/04 19:34:30;;;;;;;66.03;36.60;;;;;;;;;;10551713;28;20534;-92
2024/01/04 19:39:33;;;;;;;62.20;35.97;;;;;;;;;;10561271;28;20405;-92
2024/01/04 19:44:35;;;;;;;69.28;38.53;;;;;;;;;;10566048;28;20427;-91
2024/01/04 19:49:39;;;;;;;68.13;37.15;;;;;;;;;;10566685;28;20444;-91
2024/01/04 19:54:41;;;;;;;69.93;36.88;;;;;;;;;;10558359;28;20453;-92
2024/01/04 19:59:43;;;;;;;73.53;38.55;;;;;;;;;;10581301;28;20378;-92
2024/01/04 20:04:47;;;;;;;69.00;37.17;;;;;;;;;;10553199;28;20481;-91
2024/01/04 20:09:49;;;;;;;66.97;35.77;;;;;;;;;;10555070;28;20414;-92
2024/01/04 20:14:52;;;;;;;65.38;36.63;;;;;;;;;;10555732;28;20470;-91
2024/01/04 20:19:56;;;;;;;70.45;37.28;;;;;;;;;;10563986;28;20403;-92
2024/01/04 20:24:58;;;;;;;67.65;37.78;;;;;;;;;;10565004;28;20456;-91
2024/01/04 20:30:01;;;;;;;64.10;35.90;;;;;;;;;;10572566;28;20410;-92
2024/01/04 20:35:05;;;;;;;67.53;38.05;;;;;;;;;;10568714;28;20404;-91
2024/01/04 20:40:09;;;;;;;67.50;37.22;;;;;;;;;;10576326;28;20399;-93
2024/01/04 20:45:12;;;;;;;67.70;38.42;;;;;;;;;;10572348;28;20519;-94
2024/01/04 20:50:16;;;;;;;70.20;37.63;;;;;;;;;;10558201;28;20406;-93
2024/01/04 20:55:19;;;;;;;66.90;37.28;;;;;;;;;;10569788;28;20473;-93
2024/01/04 21:00:26;;;;;;;79.13;41.37;;;;;;;;;;10574069;28;20475;-92
2024/01/04 21:05:30;;;;;;;73.07;39.40;;;;;;;;;;10585895;28;20425;-93
2024/01/04 21:10:32;;;;;;;76.30;40.63;;;;;;;;;;10584609;28;20412;-93
2024/01/04 21:15:35;;;;;;;83.72;43.83;;;;;;;;;;10561380;28;20412;-93
2024/01/04 21:20:38;;;;;;;74.97;41.90;;;;;;;;;;10570037;28;20471;-92
2024/01/04 21:25:41;;;;;;;79.53;42.87;;;;;;;;;;10557979;28;20414;-93
2024/01/04 21:30:44;;;;;;;76.03;39.70;;;;;;;;;;10561233;28;20405;-93
2024/01/04 21:35:49;;;;;;;78.35;42.35;;;;;;;;;;10576253;28;20467;-92
2024/01/04 21:40:51;;;;;;;80.23;42.17;;;;;;;;;;10562195;28;20980;-92
2024/01/04 21:45:53;;;;;;;76.40;41.73;;;;;;;;;;10570623;28;20827;-92
2024/01/04 21:50:57;;;;;;;75.68;41.53;;;;;;;;;;10574792;28;20474;-93
2024/01/04 21:56:00;;;;;;;74.83;41.37;;;;;;;;;;10575552;28;20410;-91
2024/01/04 22:01:02;;;;;;;76.88;42.13;;;;;;;;;;10567040;28;20911;-92
2024/01/04 22:06:08;;;;;;;71.53;40.00;;;;;;;;;;10560936;28;20921;-93
2024/01/04 22:11:10;;;;;;;74.13;40.30;;;;;;;;;;10573054;28;20950;-93
2024/01/04 22:16:13;;;;;;;74.95;41.13;;;;;;;;;;10557323;28;20461;-92
2024/01/04 22:21:22;;;;;;;76.20;41.53;;;;;;;;;;10566458;28;20419;-93
2024/01/04 22:26:24;;;;;;;78.33;41.87;;;;;;;;;;10547581;28;20448;-92
2024/01/04 22:31:27;;;;;;;84.72;47.55;;;;;;;;;;10562955;28;20883;-92
2024/01/04 22:36:31;;;;;;;82.77;44.70;;;;;;;;;;10561385;28;21610;-90
2024/01/04 22:41:34;;;;;;;79.13;43.28;;;;;;;;;;10567198;28;20580;-90
2024/01/04 22:46:36;;;;;;;79.80;44.33;;;;;;;;;;10564086;28;20399;-90
2024/01/04 22:51:40;;;;;;;76.50;41.75;;;;;;;;;;10564503;28;20468;-90
2024/01/04 22:56:42;;;;;;;71.33;39.00;;;;;;;;;;10570775;28;20445;-91
2024/01/04 23:01:45;;;;;;;69.35;37.63;;;;;;;;;;10565199;28;20471;-91
2024/01/04 23:06:48;;;;;;;64.28;35.95;;;;;;;;;;10564688;28;20472;-90
2024/01/04 23:11:51;;;;;;;60.20;33.60;;;;;;;;;;10572487;28;20399;-89
2024/01/04 23:16:53;;;;;;;61.35;32.33;;;;;;;;;;10573048;28;20463;-92
2024/01/04 23:21:57;;;;;;;60.70;32.58;;;;;;;;;;10565399;28;20418;-91
2024/01/04 23:26:59;;;;;;;59.55;31.70;;;;;;;;;;10568037;28;20464;-91
2024/01/04 23:32:02;;;;;;;52.20;30.70;;;;;;;;;;10574288;28;20425;-90
2024/01/04 23:37:06;;;;;;;49.17;28.38;;;;;;;;;;10576303;28;20468;-92
2024/01/04 23:42:09;;;;;;;52.23;30.27;;;;;;;;;;10570173;28;21024;-91
2024/01/04 23:47:11;;;;;;;48.50;28.77;;;;;;;;;;10568343;28;20406;-91
2024/01/04 23:52:15;;;;;;;49.42;28.67;;;;;;;;;;10573997;28;20411;-90
2024/01/04 23:57:17;;;;;;;51.22;27.15;;;;;;;;;;10568174;28;20407;-90
